Terminal Aerodrome Forecast
Issued by NWS

Home | Current Version | Previous Version | Text Only | Print | Product List | Glossary On
Versions: 1 2 3 4 5 6 7 8 9 10 11 12 13 14 15
930
FTUS46 KPDT 191120
TAFPSC
TAF
KPSC 191120Z 1912/2012 34008G15KT P6SM FEW100
     FM191600 35007KT P6SM BKN100
     FM191800 33010KT P6SM SCT150
     FM200600 20007KT P6SM FEW250=

USA.gov is the U.S. government's official web portal to all federal, state and local government web resources and services.